Time;durP1;ratioP1;P1;durP2;ratioP2;P2;SDS_P1;SDS_P2;PMS_P1;PMS_P2;Temp;Humidity;BMP_temperature;BMP_pressure;BME280_temperature;BME280_humidity;BME280_pressure;Samples;Min_cycle;Max_cycle;Signal;HPM_P1;HPM_P2
2023/10/29 00:00:23;;;;;;;3.42;2.30;;;;;;;12.39;100.00;98661.75;5008369;28;20046;-63
2023/10/29 00:02:48;;;;;;;3.78;2.33;;;;;;;12.08;100.00;98597.25;4994317;28;20039;-64
2023/10/29 00:05:14;;;;;;;2.85;1.90;;;;;;;12.14;100.00;98622.31;4992779;28;20027;-62
2023/10/29 00:07:39;;;;;;;3.63;1.80;;;;;;;12.41;100.00;98644.84;4992868;28;20046;-64
2023/10/29 00:10:06;;;;;;;3.10;1.80;;;;;;;12.26;100.00;98619.59;4994284;28;20068;-63
2023/10/29 00:12:32;;;;;;;2.75;1.80;;;;;;;12.57;100.00;98655.09;4993715;28;20066;-61
2023/10/29 00:14:57;;;;;;;2.50;2.00;;;;;;;12.21;100.00;98602.41;4993971;28;20050;-62
2023/10/29 00:17:23;;;;;;;3.45;1.60;;;;;;;12.26;100.00;98587.94;4992645;28;20121;-64
2023/10/29 00:19:50;;;;;;;4.00;1.70;;;;;;;12.64;100.00;98650.22;4992711;28;20113;-64
2023/10/29 00:22:16;;;;;;;2.97;1.75;;;;;;;12.45;100.00;98597.97;4994049;28;20089;-62
2023/10/29 00:24:41;;;;;;;4.43;1.80;;;;;;;12.50;100.00;98590.53;4993922;28;20039;-62
2023/10/29 00:27:06;;;;;;;3.80;1.60;;;;;;;12.87;100.00;98641.38;4994116;28;20379;-62
2023/10/29 00:29:32;;;;;;;3.88;1.83;;;;;;;12.58;100.00;98577.59;4993955;28;20037;-61
2023/10/29 00:31:57;;;;;;;3.65;1.45;;;;;;;12.96;100.00;98632.72;4992713;28;20478;-62
2023/10/29 00:34:22;;;;;;;4.18;1.92;;;;;;;12.98;100.00;98633.47;4993558;28;20034;-62
2023/10/29 00:36:48;;;;;;;3.75;1.30;;;;;;;12.97;100.00;98615.94;4993754;28;20085;-62
2023/10/29 00:39:13;;;;;;;2.40;1.30;;;;;;;13.00;100.00;98621.00;4993535;28;20124;-61
2023/10/29 00:41:38;;;;;;;5.93;1.55;;;;;;;12.56;100.00;98539.94;4993380;28;20120;-62
2023/10/29 00:44:04;;;;;;;4.72;1.45;;;;;;;12.98;100.00;98623.75;5008941;28;20038;-63
2023/10/29 00:46:30;;;;;;;3.63;1.50;;;;;;;12.66;100.00;98554.13;4993783;28;20038;-62
2023/10/29 00:48:55;;;;;;;4.45;1.38;;;;;;;12.79;100.00;98572.47;5007244;28;20105;-63
2023/10/29 00:51:21;;;;;;;2.25;1.40;;;;;;;12.80;100.00;98555.69;4993136;28;20438;-63
2023/10/29 00:53:46;;;;;;;3.13;1.30;;;;;;;13.16;100.00;98605.69;4992650;28;20062;-62
2023/10/29 00:56:12;;;;;;;2.33;1.33;;;;;;;12.97;100.00;98560.47;4991957;28;20394;-62
2023/10/29 00:58:39;;;;;;;4.07;1.30;;;;;;;13.27;100.00;98603.03;4991785;28;20475;-61
2023/10/29 01:01:04;;;;;;;2.20;1.13;;;;;;;13.31;100.00;98615.03;5008202;28;20113;-61
2023/10/29 01:03:30;;;;;;;2.45;1.20;;;;;;;12.90;100.00;98532.91;4992073;28;20129;-63
2023/10/29 01:05:56;;;;;;;3.20;1.08;;;;;;;13.06;100.00;98559.78;4993314;28;20038;-63
2023/10/29 01:08:22;;;;;;;2.60;0.93;;;;;;;13.43;100.00;98611.41;4989382;28;20054;-63
2023/10/29 01:10:47;;;;;;;2.15;1.00;;;;;;;13.39;100.00;98602.06;5008323;28;20101;-64
2023/10/29 01:13:13;;;;;;;5.03;1.40;;;;;;;13.06;100.00;98545.72;4992519;28;20383;-62
2023/10/29 01:15:38;;;;;;;2.53;1.33;;;;;;;13.00;100.00;98549.69;4993108;28;20118;-62
2023/10/29 01:18:04;;;;;;;5.53;1.08;;;;;;;13.34;100.00;98614.78;4993246;28;20454;-63
2023/10/29 01:20:29;;;;;;;5.10;1.35;;;;;;;13.02;100.00;98557.50;4993208;28;20367;-63
2023/10/29 01:22:54;;;;;;;3.47;1.15;;;;;;;12.93;100.00;98545.84;4993091;28;20038;-62
2023/10/29 01:25:20;;;;;;;5.43;1.55;;;;;;;13.11;100.00;98565.56;4992086;28;20134;-61
2023/10/29 01:27:45;;;;;;;1.05;0.93;;;;;;;13.14;100.00;98569.75;4992823;28;20169;-62
2023/10/29 01:30:11;;;;;;;3.60;0.98;;;;;;;13.09;100.00;98556.94;5007857;28;20084;-63
2023/10/29 01:32:38;;;;;;;2.20;0.90;;;;;;;13.19;100.00;98580.81;5006770;28;20039;-64
2023/10/29 01:35:03;;;;;;;2.92;1.00;;;;;;;13.20;100.00;98575.41;4992662;28;20034;-63
2023/10/29 01:37:29;;;;;;;1.77;0.80;;;;;;;13.20;100.00;98561.34;4992843;28;20061;-64
2023/10/29 01:39:55;;;;;;;2.10;0.88;;;;;;;12.85;100.00;98506.00;4992815;28;20057;-62
2023/10/29 01:42:21;;;;;;;1.20;0.80;;;;;;;13.13;100.00;98553.09;4992648;28;20048;-66
2023/10/29 01:44:46;;;;;;;2.17;1.00;;;;;;;12.84;100.00;98491.94;4992714;28;20030;-63
2023/10/29 01:47:11;;;;;;;1.85;1.00;;;;;;;12.84;100.00;98489.31;4992538;28;20038;-67
2023/10/29 01:49:37;;;;;;;3.95;0.90;;;;;;;12.96;100.00;98512.09;4991441;28;20498;-64
2023/10/29 01:52:02;;;;;;;2.83;0.80;;;;;;;12.94;100.00;98500.84;4991481;28;20034;-62
2023/10/29 01:54:28;;;;;;;1.35;0.60;;;;;;;13.15;100.00;98531.81;4991461;28;20061;-64
2023/10/29 01:56:53;;;;;;;2.55;0.90;;;;;;;13.33;100.00;98564.72;4992810;28;20034;-62
2023/10/29 01:59:18;;;;;;;2.88;0.73;;;;;;;13.01;100.00;98521.47;4992607;28;20034;-65
2023/10/29 02:01:44;;;;;;;2.25;0.75;;;;;;;12.97;100.00;98513.81;4992231;28;20042;-62
2023/10/29 02:04:09;;;;;;;1.88;0.95;;;;;;;13.12;100.00;98519.72;4992365;28;20050;-64
2023/10/29 02:06:41;;;;;;;1.10;0.63;;;;;;;13.39;100.00;98596.78;4991518;28;20081;-60
2023/10/29 02:09:10;;;;;;;1.38;0.70;;;;;;;12.73;100.00;98485.81;4992644;28;20046;-61
2023/10/29 02:11:39;;;;;;;1.75;0.60;;;;;;;13.32;100.00;98608.78;5007214;28;20034;-60
2023/10/29 02:14:07;;;;;;;2.45;0.95;;;;;;;12.92;100.00;98539.72;4992384;28;20042;-65
2023/10/29 02:16:33;;;;;;;1.45;0.63;;;;;;;13.16;100.00;98596.91;4992549;28;20088;-63
2023/10/29 02:18:59;;;;;;;1.70;0.60;;;;;;;12.96;100.00;98585.19;4992523;28;20662;-62
2023/10/29 02:21:24;;;;;;;2.92;0.55;;;;;;;12.48;100.00;98518.56;4991569;28;20038;-62
2023/10/29 02:23:55;;;;;;;0.70;0.40;;;;;;;12.68;100.00;98578.59;4991501;28;20039;-61
2023/10/29 02:26:22;;;;;;;1.90;0.60;;;;;;;12.64;100.00;98565.75;4992550;28;20023;-62
2023/10/29 02:28:47;;;;;;;1.27;0.47;;;;;;;12.52;100.00;98575.41;4992190;28;20560;-62
2023/10/29 02:31:17;;;;;;;1.35;0.47;;;;;;;12.01;100.00;98508.97;4992208;28;20049;-63
2023/10/29 02:33:43;;;;;;;1.50;0.60;;;;;;;12.33;100.00;98606.78;4992353;28;20066;-63
2023/10/29 02:36:09;;;;;;;2.92;0.57;;;;;;;12.20;100.00;98600.75;4994474;28;20482;-62
2023/10/29 02:38:34;;;;;;;3.00;0.60;;;;;;;12.14;100.00;98599.38;4993488;28;20057;-63
2023/10/29 02:41:00;;;;;;;2.92;0.68;;;;;;;11.67;100.00;98534.34;4995886;28;20117;-62
2023/10/29 02:43:26;;;;;;;2.53;0.57;;;;;;;11.95;100.00;98592.97;4995814;28;20041;-62
2023/10/29 02:45:52;;;;;;;2.10;0.50;;;;;;;11.64;100.00;98549.53;4995572;28;20042;-63
2023/10/29 02:48:17;;;;;;;2.22;0.40;;;;;;;11.84;100.00;98594.59;5010726;28;20481;-62
2023/10/29 02:50:43;;;;;;;4.00;1.25;;;;;;;11.79;100.00;98595.88;4995629;28;20034;-62
2023/10/29 02:53:08;;;;;;;2.45;0.57;;;;;;;11.41;100.00;98548.56;4995737;28;20073;-62
2023/10/29 02:55:33;;;;;;;1.10;0.47;;;;;;;11.70;100.00;98607.91;4994526;28;20038;-61
2023/10/29 02:57:59;;;;;;;1.05;0.45;;;;;;;11.27;100.00;98533.72;4995482;28;20121;-63
2023/10/29 03:00:24;;;;;;;2.15;0.60;;;;;;;11.40;100.00;98569.72;4994003;28;20132;-61
2023/10/29 03:02:49;;;;;;;1.17;0.47;;;;;;;11.57;100.00;98583.38;4995377;28;20047;-61
2023/10/29 03:05:15;;;;;;;1.73;0.40;;;;;;;11.18;100.00;98521.22;4995446;28;20553;-63
2023/10/29 03:07:40;;;;;;;2.47;0.60;;;;;;;11.57;100.00;98598.34;5010311;28;20387;-62
2023/10/29 03:10:06;;;;;;;1.38;0.50;;;;;;;11.59;100.00;98586.72;4995646;28;20043;-62
2023/10/29 03:12:31;;;;;;;0.32;0.32;;;;;;;11.25;100.00;98522.47;4994256;28;20048;-61
2023/10/29 03:14:57;;;;;;;0.80;0.50;;;;;;;11.61;100.00;98579.56;4993585;28;20038;-62
2023/10/29 03:17:22;;;;;;;2.15;0.75;;;;;;;11.79;100.00;98586.16;4995249;28;20053;-61
2023/10/29 03:19:48;;;;;;;2.05;0.60;;;;;;;11.79;100.00;98561.63;4995231;28;20039;-63
2023/10/29 03:22:13;;;;;;;2.30;0.60;;;;;;;11.73;100.00;98536.53;5010064;28;20041;-61
2023/10/29 03:24:39;;;;;;;0.55;0.40;;;;;;;12.11;100.00;98593.53;5010191;28;20030;-62
2023/10/29 03:27:04;;;;;;;2.03;0.63;;;;;;;11.78;100.00;98521.25;4994893;28;20126;-61
2023/10/29 03:29:30;;;;;;;2.05;0.68;;;;;;;12.21;100.00;98576.03;4992644;28;20038;-61
2023/10/29 03:31:55;;;;;;;1.48;0.70;;;;;;;12.33;100.00;98589.16;4995050;28;20404;-61
2023/10/29 03:34:20;;;;;;;1.17;0.60;;;;;;;12.31;100.00;98564.72;5010165;28;20031;-64
2023/10/29 03:36:46;;;;;;;2.55;0.70;;;;;;;12.33;100.00;98583.88;4994838;28;20042;-63
2023/10/29 03:39:11;;;;;;;0.70;0.50;;;;;;;12.40;100.00;98576.38;4994951;28;20034;-63
2023/10/29 03:41:36;;;;;;;2.15;0.60;;;;;;;12.43;100.00;98576.94;4994650;28;20031;-61
2023/10/29 03:44:02;;;;;;;2.58;0.50;;;;;;;12.47;100.00;98587.28;4993674;28;20478;-61
2023/10/29 03:46:27;;;;;;;5.53;0.60;;;;;;;12.48;100.00;98581.06;4992906;28;20039;-62
2023/10/29 03:48:53;;;;;;;1.73;0.77;;;;;;;12.20;100.00;98534.81;4994184;28;20050;-60
2023/10/29 03:51:18;;;;;;;0.93;0.50;;;;;;;12.53;100.00;98600.00;4994631;28;20043;-62
2023/10/29 03:53:44;;;;;;;1.90;0.68;;;;;;;12.56;100.00;98610.34;4994582;28;20038;-62
2023/10/29 03:56:10;;;;;;;2.88;0.68;;;;;;;12.59;100.00;98616.22;4994512;28;20042;-61
2023/10/29 03:58:35;;;;;;;2.13;0.80;;;;;;;12.71;100.00;98609.19;4994231;28;20501;-62
2023/10/29 04:01:01;;;;;;;2.65;0.68;;;;;;;12.77;100.00;98620.13;4980456;28;20482;-62
2023/10/29 04:03:28;;;;;;;4.63;0.98;;;;;;;12.82;100.00;98617.13;4975075;28;20038;-61
2023/10/29 04:05:53;;;;;;;3.72;0.68;;;;;;;12.84;100.00;98647.72;4973556;28;20636;-62
2023/10/29 04:08:19;;;;;;;4.97;1.02;;;;;;;12.86;100.00;98681.94;4974514;28;20055;-62
2023/10/29 04:10:44;;;;;;;4.07;1.23;;;;;;;12.65;100.00;98702.03;4974965;28;20035;-59
2023/10/29 04:13:09;;;;;;;2.78;0.60;;;;;;;12.47;100.00;98706.00;4974770;28;20041;-60
2023/10/29 04:15:35;;;;;;;6.22;1.17;;;;;;;11.62;100.00;98609.38;4974991;28;20053;-59
2023/10/29 04:18:00;;;;;;;1.65;0.60;;;;;;;11.38;100.00;98650.66;4984835;28;20121;-62
2023/10/29 04:20:27;;;;;;;1.63;0.40;;;;;;;11.12;100.00;98663.00;4994124;28;20077;-62
2023/10/29 04:22:52;;;;;;;0.73;0.40;;;;;;;10.86;100.00;98646.34;4992903;28;20434;-64
2023/10/29 04:25:18;;;;;;;4.05;0.40;;;;;;;10.40;100.00;98601.25;4994251;28;20076;-64
2023/10/29 04:27:43;;;;;;;0.98;0.40;;;;;;;10.62;100.00;98664.63;4992552;28;20509;-64
2023/10/29 04:30:09;;;;;;;2.97;0.30;;;;;;;10.56;100.00;98657.16;4993988;28;20114;-64
2023/10/29 04:32:34;;;;;;;2.75;0.40;;;;;;;10.29;100.00;98632.69;4993945;28;20072;-66
2023/10/29 04:35:00;;;;;;;3.80;0.40;;;;;;;10.22;100.00;98602.47;4993175;28;20046;-64
2023/10/29 04:37:25;;;;;;;2.80;0.90;;;;;;;10.52;100.00;98660.94;5008953;28;20038;-67
2023/10/29 04:39:50;;;;;;;1.48;0.70;;;;;;;10.21;100.00;98595.53;4992344;28;20504;-62
2023/10/29 04:42:16;;;;;;;1.83;0.73;;;;;;;10.30;100.00;98610.72;4993708;28;20118;-63
2023/10/29 04:44:42;;;;;;;4.82;0.85;;;;;;;10.59;100.00;98630.66;4993711;28;20030;-64
2023/10/29 04:47:07;;;;;;;3.05;0.90;;;;;;;10.63;100.00;98628.63;4993279;28;20034;-63
2023/10/29 04:49:33;;;;;;;5.47;0.60;;;;;;;10.96;100.00;98654.47;4993832;28;20096;-65
2023/10/29 04:51:58;;;;;;;4.90;0.90;;;;;;;11.06;100.00;98655.53;4992694;28;20089;-63
2023/10/29 04:54:23;;;;;;;5.65;1.00;;;;;;;11.14;100.00;98653.19;4993490;28;20053;-64
2023/10/29 04:56:49;;;;;;;3.78;1.08;;;;;;;10.91;100.00;98589.00;4993271;28;20121;-62
2023/10/29 04:59:14;;;;;;;3.38;1.15;;;;;;;11.37;100.00;98654.22;4993549;28;20113;-65
2023/10/29 05:01:39;;;;;;;3.20;0.88;;;;;;;11.05;100.00;98596.75;4993454;28;20073;-64
2023/10/29 05:04:05;;;;;;;4.00;1.10;;;;;;;11.10;100.00;98597.28;4993612;28;20034;-64
2023/10/29 05:06:30;;;;;;;4.65;1.25;;;;;;;11.37;100.00;98618.19;4993134;28;20109;-64
2023/10/29 05:08:59;;;;;;;5.22;1.40;;;;;;;11.48;100.00;98660.44;4991938;28;20074;-59
2023/10/29 05:11:24;;;;;;;4.35;0.68;;;;;;;11.57;100.00;98651.03;4991884;28;20045;-70
2023/10/29 05:13:50;;;;;;;3.35;1.33;;;;;;;11.62;100.00;98659.44;4993090;28;20390;-65
2023/10/29 05:16:15;;;;;;;5.82;1.67;;;;;;;11.34;100.00;98580.69;4992915;28;20042;-64
2023/10/29 05:18:41;;;;;;;8.57;1.52;;;;;;;11.71;100.00;98664.09;4993021;28;20038;-59
2023/10/29 05:21:07;;;;;;;3.40;1.10;;;;;;;11.76;100.00;98688.34;4992635;28;20092;-59
2023/10/29 05:23:34;;;;;;;5.18;1.23;;;;;;;11.74;100.00;98672.63;4989137;28;20039;-59
2023/10/29 05:25:59;;;;;;;4.68;1.17;;;;;;;11.67;100.00;98668.75;4979258;28;20030;-58
2023/10/29 05:28:25;;;;;;;3.50;0.90;;;;;;;11.53;100.00;98645.13;4972220;28;20030;-59
2023/10/29 05:30:50;;;;;;;4.05;1.02;;;;;;;11.61;100.00;98684.13;4983842;28;20038;-59
2023/10/29 05:33:15;;;;;;;2.83;1.08;;;;;;;11.54;100.00;98693.41;4992956;28;20038;-59
2023/10/29 05:35:41;;;;;;;5.63;1.08;;;;;;;11.44;100.00;98702.91;4974359;28;20382;-60
2023/10/29 05:38:06;;;;;;;6.75;1.45;;;;;;;11.38;100.00;98701.56;4973669;28;20043;-59
2023/10/29 05:40:31;;;;;;;3.13;1.30;;;;;;;10.96;100.00;98625.50;4973569;28;20047;-59
2023/10/29 05:42:57;;;;;;;3.25;1.05;;;;;;;11.41;100.00;98711.88;4986238;28;20042;-59
2023/10/29 05:45:22;;;;;;;8.48;1.45;;;;;;;11.09;100.00;98671.94;4992965;28;20034;-59
2023/10/29 05:47:48;;;;;;;5.60;1.50;;;;;;;11.37;100.00;98718.28;5006928;28;20045;-59
2023/10/29 05:50:13;;;;;;;8.02;1.42;;;;;;;11.07;100.00;98686.16;4992543;28;20048;-60
2023/10/29 05:52:39;;;;;;;5.07;1.67;;;;;;;11.33;100.00;98722.06;4993061;28;20105;-59
2023/10/29 05:55:05;;;;;;;3.90;1.42;;;;;;;11.28;100.00;98750.53;4992551;28;20070;-59
2023/10/29 05:57:30;;;;;;;7.82;1.13;;;;;;;11.26;100.00;98728.72;4992589;28;20486;-59
2023/10/29 05:59:56;;;;;;;7.45;1.48;;;;;;;11.28;100.00;98727.69;5007460;28;20092;-59
2023/10/29 06:02:21;;;;;;;7.88;2.13;;;;;;;11.31;100.00;98739.78;4984115;28;20046;-60
2023/10/29 06:04:47;;;;;;;7.47;1.55;;;;;;;11.30;100.00;98746.00;5007857;28;20034;-59
2023/10/29 06:07:13;;;;;;;7.30;1.58;;;;;;;11.22;100.00;98737.78;4992417;28;20161;-60
2023/10/29 06:09:39;;;;;;;7.45;1.38;;;;;;;11.17;100.00;98745.16;4992414;28;20038;-61
2023/10/29 06:12:05;;;;;;;6.50;1.08;;;;;;;10.84;100.00;98690.34;4996214;28;20046;-58
2023/10/29 06:14:32;;;;;;;10.15;1.98;;;;;;;10.78;100.00;98682.00;5011618;28;20027;-58
2023/10/29 06:16:57;;;;;;;8.70;1.73;;;;;;;11.18;100.00;98746.81;4994658;28;20038;-59
2023/10/29 06:19:23;;;;;;;5.78;1.00;;;;;;;11.16;100.00;98757.47;4981459;28;20061;-59
2023/10/29 06:21:49;;;;;;;4.90;1.25;;;;;;;10.72;100.00;98681.50;4991013;28;20038;-59
2023/10/29 06:24:14;;;;;;;8.55;1.73;;;;;;;10.78;100.00;98679.38;4983306;28;20386;-60
2023/10/29 06:26:40;;;;;;;6.95;1.48;;;;;;;11.11;100.00;98761.38;4987282;28;20051;-58
2023/10/29 06:29:06;;;;;;;7.05;1.25;;;;;;;10.78;100.00;98688.13;4976770;28;20439;-59
2023/10/29 06:31:33;;;;;;;3.97;1.13;;;;;;;11.19;100.00;98769.59;4988860;28;20037;-59
2023/10/29 06:33:59;;;;;;;6.35;1.95;;;;;;;11.19;100.00;98794.13;4995800;28;20030;-59
2023/10/29 06:36:24;;;;;;;5.38;1.50;;;;;;;11.21;100.00;98783.47;4995873;28;20369;-59
2023/10/29 06:38:49;;;;;;;6.18;1.40;;;;;;;10.77;100.00;98732.97;5008291;28;20038;-59
2023/10/29 06:41:15;;;;;;;4.85;1.58;;;;;;;11.19;100.00;98817.84;4999938;28;20038;-58
2023/10/29 06:43:40;;;;;;;7.85;1.23;;;;;;;11.14;100.00;98821.72;5011229;28;20394;-58
2023/10/29 06:46:05;;;;;;;4.22;1.35;;;;;;;10.86;100.00;98777.13;4997422;28;20043;-59
2023/10/29 06:48:31;;;;;;;5.65;1.40;;;;;;;11.20;100.00;98835.34;4991268;28;20410;-58
2023/10/29 06:50:56;;;;;;;7.28;1.30;;;;;;;11.05;100.00;98803.91;4984490;28;20034;-59
2023/10/29 06:53:21;;;;;;;6.03;1.05;;;;;;;11.22;100.00;98849.22;4987368;28;20042;-59
2023/10/29 06:55:47;;;;;;;7.85;1.52;;;;;;;10.88;100.00;98785.75;4985379;28;20046;-59
2023/10/29 06:58:13;;;;;;;6.00;1.27;;;;;;;10.97;100.00;98798.31;4995812;28;20035;-59
2023/10/29 07:00:38;;;;;;;3.08;1.38;;;;;;;11.01;100.00;98808.50;4985342;28;20114;-58
2023/10/29 07:03:03;;;;;;;4.03;1.23;;;;;;;10.85;100.00;98770.16;4975692;28;20178;-59
2023/10/29 07:05:29;;;;;;;8.95;1.50;;;;;;;11.18;100.00;98815.28;4974743;28;20494;-59
2023/10/29 07:07:54;;;;;;;6.00;1.20;;;;;;;11.49;100.00;98867.63;4984064;28;20061;-59
2023/10/29 07:10:20;;;;;;;2.78;0.80;;;;;;;11.58;100.00;98885.44;4992276;28;20505;-59
2023/10/29 07:12:45;;;;;;;4.70;1.30;;;;;;;11.33;100.00;98840.59;5007101;28;20044;-59
2023/10/29 07:15:10;;;;;;;4.90;1.13;;;;;;;11.61;100.00;98890.53;4995563;28;20053;-58
2023/10/29 07:17:36;;;;;;;5.63;1.10;;;;;;;11.69;100.00;98905.81;5010409;28;20045;-58
2023/10/29 07:20:01;;;;;;;4.50;0.98;;;;;;;11.64;100.00;98895.59;4995291;28;20036;-58
2023/10/29 07:22:27;;;;;;;3.33;1.17;;;;;;;11.79;100.00;98915.63;4991805;28;20478;-58
2023/10/29 07:24:52;;;;;;;5.32;1.23;;;;;;;11.85;100.00;98923.13;4994640;28;20383;-58
2023/10/29 07:27:18;;;;;;;4.22;1.25;;;;;;;11.58;100.00;98866.16;4993184;28;20077;-59
2023/10/29 07:29:43;;;;;;;5.38;1.40;;;;;;;11.66;100.00;98867.31;4992834;28;20047;-58
2023/10/29 07:32:08;;;;;;;3.28;1.40;;;;;;;11.99;100.00;98911.66;4994038;28;20039;-57
2023/10/29 07:34:34;;;;;;;2.92;1.00;;;;;;;12.07;100.00;98914.63;4993797;28;20121;-58
2023/10/29 07:36:59;;;;;;;4.35;1.30;;;;;;;11.79;100.00;98872.66;4993776;28;20426;-58
2023/10/29 07:39:25;;;;;;;3.25;0.70;;;;;;;11.78;100.00;98874.44;4994933;28;20038;-58
2023/10/29 07:41:51;;;;;;;5.95;1.60;;;;;;;12.17;100.00;98946.50;4995054;28;20039;-58
2023/10/29 07:44:16;;;;;;;5.60;1.80;;;;;;;11.76;100.00;98883.41;5010467;28;20049;-58
2023/10/29 07:46:41;;;;;;;1.98;0.90;;;;;;;12.06;100.00;98915.56;4995058;28;20039;-58
2023/10/29 07:49:07;;;;;;;5.63;1.30;;;;;;;12.03;100.00;98943.94;4993581;28;20125;-57
2023/10/29 07:51:32;;;;;;;3.78;1.27;;;;;;;11.69;100.00;98882.09;4994717;28;20066;-59
2023/10/29 07:53:58;;;;;;;4.10;0.98;;;;;;;11.58;100.00;98889.88;4994493;28;20033;-57
2023/10/29 07:56:23;;;;;;;6.68;1.27;;;;;;;11.75;100.00;98906.28;4994592;28;20489;-58
2023/10/29 07:58:48;;;;;;;4.22;1.42;;;;;;;11.85;100.00;98946.88;4994685;28;20470;-58
2023/10/29 08:01:15;;;;;;;5.32;1.73;;;;;;;11.90;100.00;98957.13;4994557;28;20041;-58
2023/10/29 08:03:41;;;;;;;4.10;1.00;;;;;;;11.87;100.00;98967.00;4992198;28;20034;-58
2023/10/29 08:06:07;;;;;;;6.88;1.38;;;;;;;11.90;100.00;98987.91;4994394;28;20069;-58
2023/10/29 08:08:32;;;;;;;3.70;0.98;;;;;;;11.94;100.00;98984.13;4993870;28;20078;-58
2023/10/29 08:10:57;;;;;;;6.82;1.20;;;;;;;11.72;100.00;98971.53;4994089;28;20097;-59
2023/10/29 08:13:23;;;;;;;3.95;1.08;;;;;;;11.50;100.00;98948.34;4992822;28;20057;-58
2023/10/29 08:15:48;;;;;;;3.08;1.40;;;;;;;11.79;100.00;99015.00;4994144;28;20453;-58
2023/10/29 08:18:14;;;;;;;2.42;1.30;;;;;;;11.39;100.00;98950.84;4994051;28;20113;-58
2023/10/29 08:20:40;;;;;;;4.60;1.35;;;;;;;11.81;100.00;99018.34;4993869;28;20073;-58
2023/10/29 08:23:06;;;;;;;3.22;0.90;;;;;;;11.81;100.00;99000.75;5008135;28;20046;-58
2023/10/29 08:25:32;;;;;;;6.40;1.02;;;;;;;11.45;100.00;98945.16;4992925;28;20390;-58
2023/10/29 08:27:58;;;;;;;6.90;0.90;;;;;;;11.92;100.00;99015.84;5007786;28;20071;-59
2023/10/29 08:30:23;;;;;;;4.35;0.95;;;;;;;12.02;100.00;99014.31;4994120;28;20050;-59
2023/10/29 08:32:48;;;;;;;4.85;0.88;;;;;;;12.07;100.00;99024.53;4993527;28;20041;-58
2023/10/29 08:35:14;;;;;;;4.53;0.90;;;;;;;12.18;100.00;99022.84;4994179;28;20114;-58
2023/10/29 08:37:39;;;;;;;4.72;1.13;;;;;;;12.27;100.00;99022.25;4994255;28;20113;-57
2023/10/29 08:40:05;;;;;;;6.05;1.75;;;;;;;12.31;100.00;99026.38;4993687;28;20039;-56
2023/10/29 08:42:30;;;;;;;5.07;1.17;;;;;;;11.97;100.00;98983.88;4993689;28;20486;-57
2023/10/29 08:44:56;;;;;;;5.38;0.90;;;;;;;11.99;100.00;98968.84;4992536;28;20038;-58
2023/10/29 08:47:22;;;;;;;5.72;1.52;;;;;;;12.36;100.00;99050.63;4993648;28;20039;-57
2023/10/29 08:49:48;;;;;;;4.97;1.20;;;;;;;12.06;100.00;98999.94;4993370;28;20537;-57
2023/10/29 08:52:14;;;;;;;3.60;1.35;;;;;;;12.00;100.00;98981.03;4993540;28;20034;-58
2023/10/29 08:54:39;;;;;;;7.25;1.80;;;;;;;12.38;100.00;99076.91;4993681;28;20125;-55
2023/10/29 08:57:08;;;;;;;9.57;1.80;;;;;;;12.40;100.00;99072.41;4993650;28;20042;-58
2023/10/29 08:59:33;;;;;;;5.82;1.30;;;;;;;12.57;100.00;99090.56;4993903;28;20054;-57
2023/10/29 09:01:59;;;;;;;7.30;1.83;;;;;;;12.62;100.00;99096.38;4992183;28;20066;-58
2023/10/29 09:04:24;;;;;;;5.93;1.70;;;;;;;12.33;100.00;99023.63;4993384;28;20129;-57
2023/10/29 09:06:49;;;;;;;9.85;1.70;;;;;;;12.70;100.00;99085.28;4993201;28;20046;-58
2023/10/29 09:09:15;;;;;;;5.15;1.42;;;;;;;12.70;100.00;99094.03;4993165;28;20095;-58
2023/10/29 09:11:43;;;;;;;5.32;1.23;;;;;;;12.79;100.00;99106.63;4993196;28;20049;-58
2023/10/29 09:14:10;;;;;;;3.05;1.40;;;;;;;12.85;100.00;99103.56;4992564;28;20117;-58
2023/10/29 09:16:36;;;;;;;7.50;1.73;;;;;;;12.83;100.00;99116.03;4973501;28;20031;-57
2023/10/29 09:19:01;;;;;;;7.65;1.58;;;;;;;12.87;100.00;99114.84;4973539;28;20169;-54
2023/10/29 09:21:27;;;;;;;5.72;1.27;;;;;;;12.93;100.00;99122.34;4973295;28;20042;-57
2023/10/29 09:23:52;;;;;;;5.72;1.55;;;;;;;13.03;100.00;99105.88;4988677;28;20047;-57
2023/10/29 09:26:17;;;;;;;7.28;1.73;;;;;;;12.75;100.00;99033.88;4973948;28;20043;-57
2023/10/29 09:28:43;;;;;;;4.80;1.35;;;;;;;13.08;100.00;99099.34;4973870;28;20445;-58
2023/10/29 09:31:16;;;;;;;8.82;2.00;;;;;;;13.14;100.00;99109.47;4984080;28;20116;-58
2023/10/29 09:33:42;;;;;;;5.28;1.25;;;;;;;13.05;100.00;99118.00;4992449;28;20022;-58
2023/10/29 09:36:10;;;;;;;4.85;1.77;;;;;;;13.08;100.00;99123.13;4993276;28;20065;-59
2023/10/29 09:38:35;;;;;;;6.43;1.40;;;;;;;12.96;100.00;99119.50;4993606;28;20031;-58
2023/10/29 09:41:02;;;;;;;6.18;1.92;;;;;;;13.17;100.00;99133.03;4992906;28;20088;-58
2023/10/29 09:43:32;;;;;;;5.30;1.60;;;;;;;12.76;100.00;99085.69;4992796;28;20202;-59
2023/10/29 09:46:03;;;;;;;8.32;1.88;;;;;;;13.19;100.00;99131.13;4991719;28;20038;-58
2023/10/29 09:48:28;;;;;;;8.90;1.88;;;;;;;13.23;100.00;99124.69;5006889;28;20030;-57
2023/10/29 09:50:53;;;;;;;4.22;1.55;;;;;;;13.27;100.00;99135.91;4992682;28;20096;-57
2023/10/29 09:53:19;;;;;;;7.40;2.10;;;;;;;13.16;100.00;99130.53;5007886;28;20112;-58
2023/10/29 09:55:45;;;;;;;6.65;1.52;;;;;;;13.10;100.00;99113.31;5008311;28;20076;-57
2023/10/29 09:58:11;;;;;;;6.50;1.65;;;;;;;13.21;100.00;99109.91;5007764;28;20046;-57
2023/10/29 10:00:36;;;;;;;3.33;1.45;;;;;;;13.35;100.00;99134.41;4992846;28;20168;-57
2023/10/29 10:03:02;;;;;;;9.32;1.98;;;;;;;13.38;100.00;99110.41;4991847;28;20066;-59
2023/10/29 10:05:28;;;;;;;7.38;1.92;;;;;;;13.44;100.00;99090.63;4991558;28;20029;-58
2023/10/29 10:07:57;;;;;;;8.13;1.73;;;;;;;13.49;100.00;99105.19;4992248;28;20145;-57
2023/10/29 10:10:39;;;;;;;5.32;1.48;;;;;;;13.58;100.00;99106.31;4992220;28;20035;-57
2023/10/29 10:13:05;;;;;;;9.82;2.05;;;;;;;13.78;100.00;99111.03;4992438;28;20030;-58
2023/10/29 10:15:31;;;;;;;12.07;2.25;;;;;;;13.92;100.00;99110.84;4991215;28;20371;-58
2023/10/29 10:17:58;;;;;;;8.60;2.38;;;;;;;13.72;100.00;99058.56;4992368;28;20023;-58
2023/10/29 10:20:24;;;;;;;8.80;2.10;;;;;;;13.70;100.00;99059.66;4990502;28;20042;-57
2023/10/29 10:23:11;;;;;;;9.93;2.13;;;;;;;14.12;100.00;99124.44;4991072;28;20050;-58
2023/10/29 10:25:36;;;;;;;8.40;1.95;;;;;;;13.88;100.00;99058.31;4992268;28;20039;-58
2023/10/29 10:28:03;;;;;;;8.23;1.80;;;;;;;13.87;100.00;99046.03;4992299;28;20036;-58
2023/10/29 10:30:33;;;;;;;8.95;2.95;;;;;;;13.99;100.00;99050.41;4990921;28;20031;-56
2023/10/29 10:33:14;;;;;;;13.00;2.40;;;;;;;14.35;100.00;99113.88;4991146;28;20034;-58
2023/10/29 10:35:41;;;;;;;8.43;2.40;;;;;;;14.48;100.00;99121.72;4992374;28;20311;-53
2023/10/29 10:38:07;;;;;;;7.45;2.15;;;;;;;14.10;100.00;99116.59;4991168;28;20030;-55
2023/10/29 10:40:32;;;;;;;7.00;2.47;;;;;;;14.13;100.00;99129.59;4991323;28;20125;-52
2023/10/29 10:42:58;;;;;;;6.68;2.10;;;;;;;14.36;100.00;99181.69;4989265;28;20057;-57
2023/10/29 10:45:36;;;;;;;6.75;1.98;;;;;;;14.46;100.00;99188.03;4991037;28;20035;-56
2023/10/29 10:48:04;;;;;;;10.60;2.20;;;;;;;14.40;100.00;99171.75;4984953;28;20097;-56
2023/10/29 10:50:31;;;;;;;10.13;2.20;;;;;;;14.41;100.00;99198.13;4971695;28;20129;-56
2023/10/29 10:52:57;;;;;;;11.52;2.28;;;;;;;13.87;100.00;99138.59;4969912;28;20501;-56
2023/10/29 10:55:23;;;;;;;11.32;2.25;;;;;;;14.12;100.00;99198.53;4969789;28;20486;-55
2023/10/29 10:57:49;;;;;;;8.68;2.80;;;;;;;13.66;100.00;99124.31;4973925;28;20035;-57
2023/10/29 11:00:16;;;;;;;11.25;2.67;;;;;;;13.96;100.00;99202.28;4974571;28;20035;-57
2023/10/29 11:02:42;;;;;;;7.70;1.80;;;;;;;13.55;100.00;99146.19;4973277;28;20039;-53
2023/10/29 11:05:15;;;;;;;6.97;2.30;;;;;;;13.91;100.00;99182.41;4978219;28;20034;-58
2023/10/29 11:07:42;;;;;;;9.75;2.65;;;;;;;13.90;100.00;99172.75;4992383;28;20054;-57
2023/10/29 11:10:09;;;;;;;12.05;2.70;;;;;;;13.96;100.00;99167.03;4992824;28;20394;-57
2023/10/29 11:12:39;;;;;;;10.02;2.10;;;;;;;13.98;100.00;99162.50;4992320;28;20453;-57
2023/10/29 11:15:54;;;;;;;12.00;2.67;;;;;;;13.92;100.00;99174.34;5008708;28;20406;-57
2023/10/29 11:18:33;;;;;;;12.05;2.33;;;;;;;13.88;100.00;99175.53;4983853;28;20053;-57